Cannelton, West Virginia
Current Conditions -  °F | °C
As of 2:54 AM on Friday 24 Oct 2014 (Local Time) from KCRW Reporting Station
Haze Haze  
Wind Chill: 41°   Ceiling: 100
Heat Index: 41°   Visibility: 1mi
Dew Point: 40°   Wind: 0mph
Humidity: 96%   Direction: NA
Pressure: 30.11"   Gusts: NA
Location:  38.19°N, 81.3°W
Report Text: KCRW 240654Z 00000KT 1SM BR VV001 05/04 A3011 RMK AO2 SLP197 DNS VLY FG T00500044 RVRNO
Loading
Personal Weather Stations






























Interactive Weather Map
Tropical Storm Tracking
New forecast layout! Learn more

10-Day Weather Forecast

Advertisements
Track Severe Weather on mobile